METAR Data
IDs: Format: Raw Decoded Include TAF

Data at: 1749 UTC 23 Jan 2019

KSUA 231747Z 13017G26KT 7SM SCT015 BKN030 25/15 A3021

KSUA 231745Z 2318/2418 14017G25KT P6SM SCT035 BKN050
  FM240000 15012G20KT P6SM BKN050
  FM240900 17013KT P6SM VCSH SCT030 BKN080 WS015/17040KT
  TEMPO 2415/2417 VRB20G30KT 3SM TSRA BKN025CB BKN040
  FM241700 26012KT P6SM SCT030 BKN050